Time;durP1;ratioP1;P1;durP2;ratioP2;P2;SDS_P1;SDS_P2;PMS_P1;PMS_P2;Temp;Humidity;BMP_temperature;BMP_pressure;BME280_temperature;BME280_humidity;BME280_pressure;Samples;Min_cycle;Max_cycle;Signal;HPM_P1;HPM_P2
2021/01/14 04:14:31;;;;;;;69.28;29.60;;;-2.90;93.00;;;;;;5073322;28;20383;-92
2021/01/14 04:16:57;;;;;;;79.72;35.85;;;-2.80;93.60;;;;;;5072451;28;20021;-91
2021/01/14 04:19:22;;;;;;;87.32;39.28;;;-2.80;94.00;;;;;;5069738;28;20028;-93
2021/01/14 04:21:48;;;;;;;85.15;35.42;;;-2.70;94.40;;;;;;5069752;28;20062;-92
2021/01/14 04:24:14;;;;;;;75.03;34.42;;;-2.60;94.60;;;;;;5069692;28;20025;-92
2021/01/14 04:26:41;;;;;;;65.30;31.92;;;-2.50;94.80;;;;;;5070885;28;20032;-92
2021/01/14 04:29:07;;;;;;;68.15;32.55;;;-2.40;94.90;;;;;;5069556;28;20040;-94
2021/01/14 04:31:33;;;;;;;78.78;35.75;;;-2.30;95.00;;;;;;5070753;28;20033;-91
2021/01/14 04:34:00;;;;;;;76.20;34.42;;;-2.20;95.00;;;;;;5069395;28;20036;-90
2021/01/14 04:36:26;;;;;;;71.57;33.13;;;-2.10;95.10;;;;;;5069444;28;20029;-91
2021/01/14 04:38:51;;;;;;;79.05;35.55;;;-2.00;95.00;;;;;;5070673;28;20082;-91
2021/01/14 04:41:19;;;;;;;78.13;36.33;;;-2.00;94.90;;;;;;5069331;28;20025;-90
2021/01/14 04:43:45;;;;;;;74.40;35.97;;;-1.90;94.90;;;;;;5070759;28;20078;-89
2021/01/14 04:46:12;;;;;;;85.63;40.58;;;-1.80;94.90;;;;;;5069247;28;20024;-89
2021/01/14 04:48:43;;;;;;;84.88;40.70;;;-1.80;94.70;;;;;;5069165;28;20021;-89
2021/01/14 04:51:10;;;;;;;105.50;48.00;;;-1.70;94.60;;;;;;5069133;28;20025;-89
2021/01/14 04:53:38;;;;;;;84.80;39.13;;;-1.60;94.40;;;;;;5070340;28;20029;-90
2021/01/14 04:56:06;;;;;;;81.45;38.03;;;-1.60;94.50;;;;;;5070242;28;20062;-91
2021/01/14 04:58:34;;;;;;;84.32;40.63;;;-1.60;94.50;;;;;;5070265;28;20035;-89
2021/01/14 05:01:17;;;;;;;89.95;43.03;;;-1.60;94.50;;;;;;5068947;28;20032;-90
2021/01/14 05:03:46;;;;;;;92.25;42.83;;;-1.50;94.40;;;;;;5068658;28;20036;-90
2021/01/14 05:06:16;;;;;;;86.15;40.97;;;-1.50;94.20;;;;;;5069876;28;20032;-88
2021/01/14 05:08:44;;;;;;;90.20;42.47;;;-1.50;94.20;;;;;;5068375;28;20024;-90
2021/01/14 05:11:15;;;;;;;91.45;43.28;;;-1.50;94.10;;;;;;5065573;28;20017;-90
2021/01/14 05:13:41;;;;;;;92.15;42.83;;;-1.50;94.00;;;;;;5069316;28;20056;-90
2021/01/14 05:16:07;;;;;;;93.63;42.72;;;-1.50;94.00;;;;;;5069418;28;20021;-90
2021/01/14 05:18:34;;;;;;;88.95;41.28;;;-1.40;94.00;;;;;;5069383;28;20096;-90
2021/01/14 05:21:00;;;;;;;79.70;37.03;;;-1.50;94.00;;;;;;5066511;28;20380;-91
2021/01/14 05:23:28;;;;;;;75.63;35.90;;;-1.40;94.00;;;;;;5061804;28;20135;-91
2021/01/14 16:29:17;;;;;;;46.85;24.58;;;-1.50;94.60;;;;;;5068718;28;20391;-89
2021/01/14 16:31:48;;;;;;;50.95;26.95;;;-1.50;95.10;;;;;;5050102;28;20052;-90
2021/01/14 16:34:14;;;;;;;46.67;24.70;;;-1.50;95.40;;;;;;5048472;28;20021;-90
2021/01/14 16:36:39;;;;;;;50.55;25.20;;;-1.40;95.70;;;;;;5047904;28;20036;-91
2021/01/14 16:39:05;;;;;;;51.80;27.38;;;-1.40;95.70;;;;;;5050417;28;20028;-89
2021/01/14 16:41:31;;;;;;;54.28;27.85;;;-1.30;95.70;;;;;;5050863;28;20036;-90
2021/01/14 16:43:57;;;;;;;53.13;26.65;;;-1.30;95.60;;;;;;5051192;28;20036;-89
2021/01/14 16:46:28;;;;;;;56.90;27.15;;;-1.30;95.70;;;;;;5048904;28;20025;-88
2021/01/14 16:49:04;;;;;;;60.05;29.88;;;-1.20;95.80;;;;;;5048720;28;20381;-88
2021/01/14 16:51:30;;;;;;;52.22;25.23;;;-1.20;95.60;;;;;;5050978;28;20025;-88
2021/01/14 16:53:57;;;;;;;53.83;28.17;;;-1.20;95.60;;;;;;5050905;28;20029;-91
2021/01/14 16:56:23;;;;;;;50.47;26.15;;;-1.20;95.40;;;;;;5046949;28;20029;-89
2021/01/14 16:58:50;;;;;;;45.13;23.63;;;-1.20;95.40;;;;;;5050118;28;20025;-89
2021/01/14 17:01:27;;;;;;;40.55;22.95;;;-1.30;95.30;;;;;;5049765;28;20114;-93
2021/01/14 17:03:56;;;;;;;41.47;23.27;;;-1.30;95.40;;;;;;5047382;28;20052;-92
2021/01/14 17:06:37;;;;;;;37.50;20.90;;;-1.30;94.80;;;;;;5054734;28;20693;-92
2021/01/14 17:09:04;;;;;;;36.47;21.40;;;-1.30;95.00;;;;;;5059487;28;20021;-92
2021/01/14 17:11:32;;;;;;;42.25;24.55;;;-1.30;95.00;;;;;;5055947;28;20036;-92
2021/01/14 17:13:59;;;;;;;45.60;24.58;;;-1.40;95.00;;;;;;5064546;28;20481;-92
2021/01/14 17:16:25;;;;;;;47.67;26.92;;;-1.40;94.90;;;;;;5053729;28;20062;-91
2021/01/14 17:18:51;;;;;;;50.45;28.13;;;-1.40;94.80;;;;;;5049822;28;20493;-93
2021/01/14 17:21:20;;;;;;;47.90;27.25;;;-1.50;94.70;;;;;;5049654;28;20033;-93
2021/01/14 17:23:47;;;;;;;50.05;26.80;;;-1.50;94.70;;;;;;5049474;28;20079;-92
2021/01/14 17:26:15;;;;;;;56.55;31.38;;;-1.50;94.70;;;;;;5049210;28;20470;-92
2021/01/14 17:28:42;;;;;;;60.15;32.80;;;-1.60;94.60;;;;;;5052873;28;20025;-94
2021/01/14 17:31:08;;;;;;;59.35;29.95;;;-1.60;94.90;;;;;;5059825;28;20040;-93
2021/01/14 17:33:34;;;;;;;59.97;30.73;;;-1.70;94.60;;;;;;5057324;28;20072;-93
2021/01/14 17:36:05;;;;;;;65.40;33.75;;;-1.70;94.60;;;;;;5060983;28;20078;-93
2021/01/14 17:38:31;;;;;;;59.10;32.95;;;-1.70;94.60;;;;;;5060263;28;20024;-94
2021/01/14 17:40:57;;;;;;;63.15;32.83;;;-1.70;94.60;;;;;;5060977;28;20053;-93
2021/01/14 17:43:23;;;;;;;60.97;31.92;;;-1.70;94.60;;;;;;5058826;28;20535;-91
2021/01/14 17:45:48;;;;;;;67.65;32.20;;;-1.80;94.50;;;;;;5053527;28;20025;-91
2021/01/14 17:48:14;;;;;;;67.93;32.83;;;-1.80;94.50;;;;;;5051352;28;20074;-92
2021/01/14 17:50:40;;;;;;;60.33;30.38;;;-1.80;94.40;;;;;;5051455;28;20037;-92
2021/01/14 17:53:05;;;;;;;55.10;28.90;;;-1.80;94.40;;;;;;5053816;28;20490;-93
2021/01/14 17:55:31;;;;;;;67.93;33.67;;;-1.80;94.40;;;;;;5051165;28;20030;-92
2021/01/14 17:57:59;;;;;;;66.80;35.22;;;-1.90;94.30;;;;;;5057474;28;20033;-92
2021/01/14 18:00:25;;;;;;;66.43;37.15;;;-1.90;94.30;;;;;;5057262;28;20025;-92
2021/01/14 18:02:50;;;;;;;61.08;34.80;;;-1.90;94.20;;;;;;5051380;28;20037;-91
2021/01/14 18:05:16;;;;;;;61.10;33.15;;;-1.90;94.30;;;;;;5049825;28;20075;-91
2021/01/14 18:07:44;;;;;;;65.20;34.58;;;-2.00;94.30;;;;;;5061141;28;20032;-92
2021/01/14 18:10:12;;;;;;;65.88;35.08;;;-2.00;94.30;;;;;;5050074;28;20024;-91
2021/01/14 18:12:38;;;;;;;64.25;35.17;;;-2.00;94.30;;;;;;5066956;28;20035;-91
2021/01/14 18:15:05;;;;;;;66.60;35.60;;;-2.10;94.20;;;;;;5049836;28;20033;-91
2021/01/14 18:17:31;;;;;;;63.05;33.13;;;-2.10;94.30;;;;;;5036439;28;20029;-92
2021/01/14 18:20:00;;;;;;;64.18;34.13;;;-2.20;94.30;;;;;;5026111;28;20061;-91
2021/01/14 18:22:27;;;;;;;54.03;28.85;;;-2.20;94.30;;;;;;5015852;28;20393;-93
2021/01/14 18:24:54;;;;;;;53.10;28.27;;;-2.30;94.30;;;;;;5017095;28;20030;-94
2021/01/14 18:27:19;;;;;;;52.17;27.83;;;-2.30;94.30;;;;;;5015718;28;20037;-94
2021/01/14 18:29:45;;;;;;;53.28;29.02;;;-2.30;94.40;;;;;;5015933;28;20026;-93
2021/01/14 18:33:21;;;;;;;58.10;29.73;;;-2.40;94.00;;;;;;5070739;28;20364;-93
2021/01/14 18:35:47;;;;;;;59.95;31.30;;;-2.40;94.50;;;;;;5069491;28;20078;-92
2021/01/14 18:38:14;;;;;;;65.30;32.70;;;-2.50;94.40;;;;;;5071154;28;20056;-92
2021/01/14 18:40:40;;;;;;;64.90;33.72;;;-2.50;94.40;;;;;;5071542;28;20029;-91
2021/01/14 18:43:06;;;;;;;73.75;36.92;;;-2.50;94.40;;;;;;5069884;28;20024;-93
2021/01/14 18:45:32;;;;;;;83.93;40.92;;;-2.50;94.50;;;;;;5069913;28;20033;-91
2021/01/14 18:47:58;;;;;;;85.57;43.53;;;-2.50;94.40;;;;;;5070944;28;20021;-92
2021/01/14 18:50:26;;;;;;;78.28;41.22;;;-2.50;94.40;;;;;;5053132;28;20541;-93
2021/01/14 18:52:52;;;;;;;71.68;36.83;;;-2.60;94.40;;;;;;5069504;28;20397;-93
2021/01/14 18:55:19;;;;;;;68.82;34.30;;;-2.60;94.40;;;;;;5069383;28;20029;-92
2021/01/14 18:57:45;;;;;;;62.75;34.13;;;-2.60;94.40;;;;;;5069592;28;20029;-92
2021/01/14 19:00:13;;;;;;;63.50;31.58;;;-2.60;94.30;;;;;;5069797;28;20040;-91
2021/01/14 19:02:40;;;;;;;65.93;32.95;;;-2.60;94.30;;;;;;5068455;28;20484;-93
2021/01/14 19:05:07;;;;;;;66.90;33.78;;;-2.60;94.30;;;;;;5068238;28;20428;-93
2021/01/14 19:36:55;;;;;;;59.85;27.75;;;-3.70;93.20;;;;;;5070693;28;20953;-91
2021/01/14 19:39:21;;;;;;;56.80;27.55;;;-3.80;93.70;;;;;;5058254;28;20469;-93
2021/01/14 19:41:47;;;;;;;61.90;27.48;;;-3.90;94.10;;;;;;5068091;28;20036;-94
2021/01/14 19:44:13;;;;;;;56.85;28.58;;;-3.80;94.40;;;;;;5061012;28;20528;-91
2021/01/14 19:46:41;;;;;;;49.00;25.38;;;-3.80;94.70;;;;;;5064518;28;20028;-93
2021/01/14 19:49:11;;;;;;;51.72;25.85;;;-3.80;94.70;;;;;;5056245;28;20078;-96
2021/01/14 19:51:41;;;;;;;58.78;29.45;;;-3.80;94.90;;;;;;5058335;28;20128;-92
2021/01/14 19:54:13;;;;;;;57.40;26.80;;;-3.70;95.00;;;;;;5053294;28;20048;-91
